CheckWX is a tool to help pilots better visualize weather data.  It is not intended as a substitute for an official pre-flight weather briefing.

08:32:43 UTC

LFTW TAF
Nîmes-Arles-Camargue Airport
Nîmes/Garons, France
TAF AMD LFTW 260504Z 2605/2703 05010KT 9999 SCT015 BKN020 TEMPO 2605/2609 4000 SHRA BKN008 SCT014TCU TEMPO 2605/2613 VRB15G25KT 1200 TSRA BKN005 SCT010CB BECMG 2619/2621 CAVOK

Jan-26@
05:00 UTC

Jan-26 @ 05:00 UTC

Jan-26@
19:00 UTC

Jan-26 @ 19:00 UTC

TAF AMD LFTW 260504Z 2605/2703 05010KT 9999 SCT015 BKN020
Wind
  • 050° at 10 KTS
Cloud Levels
  • Scattered at 1,500' AGL
  • Broken at 2,000' AGL

Jan-26@
05:00 UTC

Jan-26 @ 05:00 UTC

Jan-26@
09:00 UTC

Jan-26 @ 09:00 UTC

TEMPO 2605/2613 VRB15G25KT 1200 TSRA BKN005 SCT010CB

Temporary

Temporary Changes expected for less than half the time period

Conditions
Rain
Cloud Levels
  • Broken at 800' AGL
  • Scattered at 1,400' AGL

Jan-26@
05:00 UTC

Jan-26 @ 05:00 UTC

Jan-26@
13:00 UTC

Jan-26 @ 13:00 UTC

TEMPO 2605/2613 VRB15G25KT 1200 TSRA BKN005 SCT010CB

Temporary

Temporary Changes expected for less than half the time period

Wind
  • Variable at 15 KTS
  • {Gusting to 25 KTS
Conditions
Thunderstorm, Rain
Cloud Levels
  • Broken at 500' AGL
  • Scattered at 1,000' AGL

Jan-26@
19:00 UTC

Jan-26 @ 19:00 UTC

Jan-27@
03:00 UTC

Jan-27 @ 03:00 UTC

BECMG 2619/2621 CAVOK

Becoming

Becoming Conditions expected by Sun, Jan 26, 2020 @ 21:00 UTC

Wind
  • 050° at 10 KTS
Conditions
No significant weather
Cloud Levels
  • No significant clouds